sensor_id;sensor_type;location;lat;lon;timestamp;pressure;altitude;pressure_sealevel;temperature;humidity
45941;BME280;31858;46.008;8.978;2023-04-28T00:02:36;94761.19;;;12.63;100.00
45941;BME280;31858;46.008;8.978;2023-04-28T00:12:39;94742.50;;;12.66;100.00
45941;BME280;31858;46.008;8.978;2023-04-28T00:22:40;94742.06;;;12.47;100.00
45941;BME280;31858;46.008;8.978;2023-04-28T00:32:43;94735.53;;;12.33;100.00
45941;BME280;31858;46.008;8.978;2023-04-28T00:42:45;94739.34;;;12.32;100.00
45941;BME280;31858;46.008;8.978;2023-04-28T00:52:48;94742.78;;;12.33;100.00
45941;BME280;31858;46.008;8.978;2023-04-28T01:02:51;94735.72;;;11.93;100.00
45941;BME280;31858;46.008;8.978;2023-04-28T01:12:54;94727.75;;;12.00;100.00
45941;BME280;31858;46.008;8.978;2023-04-28T01:22:55;94737.63;;;11.89;100.00
45941;BME280;31858;46.008;8.978;2023-04-28T01:32:58;94728.56;;;12.11;100.00
45941;BME280;31858;46.008;8.978;2023-04-28T01:43:00;94747.53;;;11.85;100.00
45941;BME280;31858;46.008;8.978;2023-04-28T01:53:03;94755.41;;;11.67;100.00
45941;BME280;31858;46.008;8.978;2023-04-28T02:03:04;94759.25;;;11.69;100.00
45941;BME280;31858;46.008;8.978;2023-04-28T02:13:07;94765.66;;;11.58;100.00
45941;BME280;31858;46.008;8.978;2023-04-28T02:23:09;94754.16;;;11.50;100.00
45941;BME280;31858;46.008;8.978;2023-04-28T02:33:12;94753.34;;;11.42;100.00
45941;BME280;31858;46.008;8.978;2023-04-28T02:43:13;94742.66;;;11.39;100.00
45941;BME280;31858;46.008;8.978;2023-04-28T02:53:16;94721.97;;;11.25;100.00
45941;BME280;31858;46.008;8.978;2023-04-28T03:03:18;94719.28;;;11.22;100.00
45941;BME280;31858;46.008;8.978;2023-04-28T03:13:21;94743.31;;;11.25;100.00
45941;BME280;31858;46.008;8.978;2023-04-28T03:23:22;94746.41;;;11.31;100.00
45941;BME280;31858;46.008;8.978;2023-04-28T03:33:25;94733.03;;;11.27;100.00
45941;BME280;31858;46.008;8.978;2023-04-28T03:43:27;94735.84;;;11.45;100.00
45941;BME280;31858;46.008;8.978;2023-04-28T03:53:30;94722.78;;;11.33;100.00
45941;BME280;31858;46.008;8.978;2023-04-28T04:03:31;94708.13;;;11.64;100.00
45941;BME280;31858;46.008;8.978;2023-04-28T04:13:34;94712.13;;;11.33;100.00
45941;BME280;31858;46.008;8.978;2023-04-28T04:23:36;94703.19;;;11.69;100.00
45941;BME280;31858;46.008;8.978;2023-04-28T04:33:39;94689.47;;;11.67;100.00
45941;BME280;31858;46.008;8.978;2023-04-28T04:43:41;94712.19;;;11.43;100.00
45941;BME280;31858;46.008;8.978;2023-04-28T04:53:44;94718.31;;;11.48;100.00
45941;BME280;31858;46.008;8.978;2023-04-28T05:03:45;94738.94;;;11.54;100.00
45941;BME280;31858;46.008;8.978;2023-04-28T05:13:48;94748.88;;;11.57;100.00
45941;BME280;31858;46.008;8.978;2023-04-28T05:23:50;94741.25;;;11.59;100.00
45941;BME280;31858;46.008;8.978;2023-04-28T05:33:54;94758.88;;;11.74;100.00
45941;BME280;31858;46.008;8.978;2023-04-28T05:43:55;94745.16;;;11.76;100.00
45941;BME280;31858;46.008;8.978;2023-04-28T05:53:58;94764.28;;;11.82;100.00
45941;BME280;31858;46.008;8.978;2023-04-28T06:04:00;94770.44;;;11.89;100.00
45941;BME280;31858;46.008;8.978;2023-04-28T06:14:03;94762.81;;;11.91;100.00
45941;BME280;31858;46.008;8.978;2023-04-28T06:24:05;94765.50;;;11.95;100.00
45941;BME280;31858;46.008;8.978;2023-04-28T06:34:08;94746.09;;;12.05;100.00
45941;BME280;31858;46.008;8.978;2023-04-28T06:44:10;94756.81;;;12.12;100.00
45941;BME280;31858;46.008;8.978;2023-04-28T06:54:13;94782.38;;;12.13;100.00
45941;BME280;31858;46.008;8.978;2023-04-28T07:04:15;94781.59;;;12.09;100.00
45941;BME280;31858;46.008;8.978;2023-04-28T07:14:18;94762.91;;;12.09;100.00
45941;BME280;31858;46.008;8.978;2023-04-28T07:24:20;94779.75;;;12.24;100.00
45941;BME280;31858;46.008;8.978;2023-04-28T07:34:24;94776.75;;;12.36;100.00
45941;BME280;31858;46.008;8.978;2023-04-28T07:44:25;94769.09;;;12.31;100.00
45941;BME280;31858;46.008;8.978;2023-04-28T07:54:28;94767.22;;;12.42;100.00
45941;BME280;31858;46.008;8.978;2023-04-28T08:04:30;94774.91;;;12.54;100.00
45941;BME280;31858;46.008;8.978;2023-04-28T08:14:34;94782.97;;;12.68;100.00
45941;BME280;31858;46.008;8.978;2023-04-28T08:24:36;94783.38;;;12.78;100.00
45941;BME280;31858;46.008;8.978;2023-04-28T08:34:39;94788.38;;;12.86;100.00
45941;BME280;31858;46.008;8.978;2023-04-28T08:44:41;94781.88;;;12.94;100.00
45941;BME280;31858;46.008;8.978;2023-04-28T08:54:45;94780.34;;;13.15;100.00
45941;BME280;31858;46.008;8.978;2023-04-28T09:04:48;94772.75;;;13.34;100.00
45941;BME280;31858;46.008;8.978;2023-04-28T09:14:57;94772.75;;;13.49;100.00
45941;BME280;31858;46.008;8.978;2023-04-28T09:25:09;94760.50;;;13.65;100.00
45941;BME280;31858;46.008;8.978;2023-04-28T09:35:13;94769.66;;;13.86;100.00
45941;BME280;31858;46.008;8.978;2023-04-28T09:45:15;94765.03;;;13.97;100.00
45941;BME280;31858;46.008;8.978;2023-04-28T09:55:18;94749.66;;;14.22;100.00
45941;BME280;31858;46.008;8.978;2023-04-28T10:05:20;94761.44;;;14.43;100.00
45941;BME280;31858;46.008;8.978;2023-04-28T10:15:24;94741.44;;;14.61;100.00
45941;BME280;31858;46.008;8.978;2023-04-28T10:25:27;94740.56;;;14.79;100.00
45941;BME280;31858;46.008;8.978;2023-04-28T10:35:41;94732.72;;;15.06;100.00
45941;BME280;31858;46.008;8.978;2023-04-28T10:46:00;94719.97;;;15.20;100.00
45941;BME280;31858;46.008;8.978;2023-04-28T10:56:06;94700.97;;;15.45;100.00
45941;BME280;31858;46.008;8.978;2023-04-28T11:06:17;94694.28;;;15.60;100.00
45941;BME280;31858;46.008;8.978;2023-04-28T11:16:23;94685.94;;;15.89;100.00
45941;BME280;31858;46.008;8.978;2023-04-28T11:26:26;94673.56;;;16.29;86.83
45941;BME280;31858;46.008;8.978;2023-04-28T11:36:33;94678.75;;;16.13;80.23
45941;BME280;31858;46.008;8.978;2023-04-28T11:46:43;94666.44;;;16.15;79.07
45941;BME280;31858;46.008;8.978;2023-04-28T11:56:46;94648.75;;;16.45;95.09
45941;BME280;31858;46.008;8.978;2023-04-28T12:06:57;94650.22;;;16.49;82.29
45941;BME280;31858;46.008;8.978;2023-04-28T12:17:00;94639.75;;;16.85;80.30
45941;BME280;31858;46.008;8.978;2023-04-28T12:27:13;94628.47;;;16.90;77.27
45941;BME280;31858;46.008;8.978;2023-04-28T12:37:17;94631.06;;;17.21;73.69
45941;BME280;31858;46.008;8.978;2023-04-28T12:47:19;94614.78;;;17.28;75.39
45941;BME280;31858;46.008;8.978;2023-04-28T12:57:22;94605.13;;;17.50;73.30
45941;BME280;31858;46.008;8.978;2023-04-28T13:07:23;94605.19;;;17.90;69.30
45941;BME280;31858;46.008;8.978;2023-04-28T13:17:26;94601.03;;;17.66;66.75
45941;BME280;31858;46.008;8.978;2023-04-28T13:27:28;94576.69;;;17.89;67.58
45941;BME280;31858;46.008;8.978;2023-04-28T13:37:31;94581.16;;;18.15;67.20
45941;BME280;31858;46.008;8.978;2023-04-28T13:47:33;94572.06;;;17.89;64.70
45941;BME280;31858;46.008;8.978;2023-04-28T13:57:36;94550.72;;;17.79;71.66
45941;BME280;31858;46.008;8.978;2023-04-28T14:07:38;94547.09;;;18.38;63.71
45941;BME280;31858;46.008;8.978;2023-04-28T14:17:41;94541.03;;;18.50;68.45
45941;BME280;31858;46.008;8.978;2023-04-28T14:27:42;94522.75;;;18.90;63.11
45941;BME280;31858;46.008;8.978;2023-04-28T14:37:46;94515.13;;;19.30;61.71
45941;BME280;31858;46.008;8.978;2023-04-28T14:47:47;94508.66;;;19.82;63.82
45941;BME280;31858;46.008;8.978;2023-04-28T14:57:50;94499.47;;;19.92;57.34
45941;BME280;31858;46.008;8.978;2023-04-28T15:07:52;94484.75;;;19.68;57.63
45941;BME280;31858;46.008;8.978;2023-04-28T15:17:55;94484.81;;;19.39;57.25
45941;BME280;31858;46.008;8.978;2023-04-28T15:27:59;94476.41;;;19.49;56.86
45941;BME280;31858;46.008;8.978;2023-04-28T15:38:04;94474.63;;;19.30;55.89
45941;BME280;31858;46.008;8.978;2023-04-28T15:48:06;94461.63;;;19.25;59.01
45941;BME280;31858;46.008;8.978;2023-04-28T15:58:10;94456.66;;;19.23;58.59
45941;BME280;31858;46.008;8.978;2023-04-28T16:08:12;94443.16;;;19.23;56.66
45941;BME280;31858;46.008;8.978;2023-04-28T16:18:15;94449.44;;;19.33;59.24
45941;BME280;31858;46.008;8.978;2023-04-28T16:28:16;94437.25;;;19.41;56.14
45941;BME280;31858;46.008;8.978;2023-04-28T16:38:19;94426.97;;;19.36;55.20
45941;BME280;31858;46.008;8.978;2023-04-28T16:48:21;94432.25;;;19.27;58.20
45941;BME280;31858;46.008;8.978;2023-04-28T16:58:24;94431.72;;;18.90;60.16
45941;BME280;31858;46.008;8.978;2023-04-28T17:08:26;94417.50;;;18.74;58.28
45941;BME280;31858;46.008;8.978;2023-04-28T17:18:29;94414.16;;;18.53;62.25
45941;BME280;31858;46.008;8.978;2023-04-28T17:28:31;94394.53;;;18.37;61.53
45941;BME280;31858;46.008;8.978;2023-04-28T17:38:35;94393.56;;;18.14;64.50
45941;BME280;31858;46.008;8.978;2023-04-28T17:48:36;94397.47;;;17.45;64.03
45941;BME280;31858;46.008;8.978;2023-04-28T17:58:40;94403.59;;;17.09;66.98
45941;BME280;31858;46.008;8.978;2023-04-28T18:08:41;94394.44;;;16.87;70.61
45941;BME280;31858;46.008;8.978;2023-04-28T18:18:44;94396.88;;;16.81;72.27
45941;BME280;31858;46.008;8.978;2023-04-28T18:28:47;94399.06;;;16.67;76.16
45941;BME280;31858;46.008;8.978;2023-04-28T18:38:50;94426.66;;;16.47;79.80
45941;BME280;31858;46.008;8.978;2023-04-28T18:48:51;94412.34;;;16.30;80.41
45941;BME280;31858;46.008;8.978;2023-04-28T18:58:55;94422.69;;;16.32;82.36
45941;BME280;31858;46.008;8.978;2023-04-28T19:08:57;94420.88;;;16.02;86.63
45941;BME280;31858;46.008;8.978;2023-04-28T19:19:00;94423.44;;;15.86;92.95
45941;BME280;31858;46.008;8.978;2023-04-28T19:29:02;94423.53;;;15.79;92.04
45941;BME280;31858;46.008;8.978;2023-04-28T19:39:06;94440.41;;;15.79;90.06
45941;BME280;31858;46.008;8.978;2023-04-28T19:49:08;94426.84;;;15.63;91.28
45941;BME280;31858;46.008;8.978;2023-04-28T19:59:11;94419.94;;;15.62;90.30
45941;BME280;31858;46.008;8.978;2023-04-28T20:09:13;94436.72;;;15.70;98.17
45941;BME280;31858;46.008;8.978;2023-04-28T20:19:16;94443.19;;;15.45;99.40
45941;BME280;31858;46.008;8.978;2023-04-28T20:29:17;94446.50;;;14.95;100.00
45941;BME280;31858;46.008;8.978;2023-04-28T20:39:20;94459.13;;;14.95;100.00
45941;BME280;31858;46.008;8.978;2023-04-28T20:49:22;94465.41;;;14.44;100.00
45941;BME280;31858;46.008;8.978;2023-04-28T20:59:25;94461.63;;;14.34;100.00
45941;BME280;31858;46.008;8.978;2023-04-28T21:09:27;94472.03;;;14.28;100.00
45941;BME280;31858;46.008;8.978;2023-04-28T21:19:30;94492.78;;;14.21;100.00
45941;BME280;31858;46.008;8.978;2023-04-28T21:29:32;94485.75;;;14.34;100.00
45941;BME280;31858;46.008;8.978;2023-04-28T21:39:35;94479.56;;;14.44;100.00
45941;BME280;31858;46.008;8.978;2023-04-28T21:49:37;94508.25;;;14.47;100.00
45941;BME280;31858;46.008;8.978;2023-04-28T21:59:40;94510.19;;;14.47;100.00
45941;BME280;31858;46.008;8.978;2023-04-28T22:09:42;94512.06;;;14.50;100.00
45941;BME280;31858;46.008;8.978;2023-04-28T22:19:45;94498.97;;;14.59;100.00
45941;BME280;31858;46.008;8.978;2023-04-28T22:29:46;94515.72;;;14.70;100.00
45941;BME280;31858;46.008;8.978;2023-04-28T22:39:49;94488.75;;;14.84;100.00
45941;BME280;31858;46.008;8.978;2023-04-28T22:49:51;94476.50;;;14.46;100.00
45941;BME280;31858;46.008;8.978;2023-04-28T22:59:54;94453.16;;;14.43;100.00
45941;BME280;31858;46.008;8.978;2023-04-28T23:09:55;94422.16;;;14.42;100.00
45941;BME280;31858;46.008;8.978;2023-04-28T23:19:58;94434.78;;;14.37;100.00
45941;BME280;31858;46.008;8.978;2023-04-28T23:30:00;94405.09;;;13.77;100.00
45941;BME280;31858;46.008;8.978;2023-04-28T23:40:03;94379.34;;;13.38;100.00
45941;BME280;31858;46.008;8.978;2023-04-28T23:50:06;94373.28;;;13.30;100.00
